createdAt,value
2022-10-24T00:00:19.509Z,83
2022-10-24T00:05:19.370Z,83
2022-10-24T00:10:19.358Z,83
2022-10-24T00:15:19.451Z,83
2022-10-24T00:20:19.422Z,83
2022-10-24T00:25:16.462Z,82
2022-10-24T00:30:16.413Z,82
2022-10-24T00:35:16.392Z,82
2022-10-24T00:40:16.428Z,82
2022-10-24T00:45:16.463Z,82
2022-10-24T00:50:19.434Z,83
2022-10-24T00:55:19.441Z,83
2022-10-24T01:00:16.244Z,83
2022-10-24T01:05:16.436Z,83
2022-10-24T01:10:16.471Z,83
2022-10-24T01:15:19.410Z,83
2022-10-24T01:20:19.405Z,83
2022-10-24T01:25:19.404Z,82
2022-10-24T01:30:16.496Z,82
2022-10-24T01:35:19.503Z,82
2022-10-24T01:40:19.552Z,82
2022-10-24T01:45:19.434Z,82
2022-10-24T01:50:16.466Z,81
2022-10-24T01:55:16.443Z,81
2022-10-24T02:00:16.506Z,81
2022-10-24T02:05:19.629Z,80
2022-10-24T02:10:19.468Z,80
2022-10-24T02:15:19.452Z,80
2022-10-24T02:20:16.460Z,80
2022-10-24T02:25:16.452Z,81
2022-10-24T02:30:19.495Z,81
2022-10-24T02:35:19.476Z,81
2022-10-24T02:40:19.496Z,81
2022-10-24T02:45:16.503Z,81
2022-10-24T02:50:16.508Z,81
2022-10-24T02:55:16.476Z,81
2022-10-24T03:00:19.473Z,81
2022-10-24T03:05:19.449Z,81
2022-10-24T03:10:19.434Z,81
2022-10-24T03:15:19.511Z,82
2022-10-24T03:20:16.523Z,82
2022-10-24T03:25:16.472Z,82
2022-10-24T03:30:19.469Z,82
2022-10-24T03:35:19.526Z,82
2022-10-24T03:40:16.445Z,83
2022-10-24T03:45:19.489Z,83
2022-10-24T03:50:16.537Z,83
2022-10-24T03:55:16.485Z,83
2022-10-24T04:00:15.779Z,83
2022-10-24T04:05:18.750Z,84
2022-10-24T04:10:18.763Z,84
2022-10-24T04:15:18.751Z,85
2022-10-24T04:20:18.930Z,85
2022-10-24T04:25:18.727Z,85
2022-10-24T04:30:18.737Z,85
2022-10-24T04:35:15.776Z,85
2022-10-24T04:40:15.803Z,85
2022-10-24T04:45:18.790Z,85
2022-10-24T04:50:18.864Z,86
2022-10-24T04:55:18.806Z,86
2022-10-24T05:00:18.773Z,86
2022-10-24T05:05:15.785Z,87
2022-10-24T05:10:18.744Z,87
2022-10-24T05:15:15.817Z,87
2022-10-24T05:20:18.754Z,87
2022-10-24T05:25:18.771Z,88
2022-10-24T05:30:18.967Z,88
2022-10-24T05:35:18.796Z,88
2022-10-24T05:40:15.793Z,89
2022-10-24T05:45:15.790Z,88
2022-10-24T05:50:15.807Z,89
2022-10-24T05:55:18.873Z,89
2022-10-24T06:00:18.791Z,89
2022-10-24T06:05:18.832Z,89
2022-10-24T06:10:18.765Z,89
2022-10-24T06:15:18.775Z,89
2022-10-24T06:20:18.759Z,89
2022-10-24T06:25:15.806Z,89
2022-10-24T06:30:15.826Z,89
2022-10-24T06:35:18.780Z,89
2022-10-24T06:40:18.961Z,90
2022-10-24T06:45:18.774Z,90
2022-10-24T06:50:18.768Z,90
2022-10-24T06:55:18.798Z,90
2022-10-24T07:00:15.911Z,90
2022-10-24T07:05:15.822Z,90
2022-10-24T07:10:18.804Z,90
2022-10-24T07:15:18.881Z,91
2022-10-24T07:20:18.799Z,91
2022-10-24T07:25:18.804Z,91
2022-10-24T07:30:18.836Z,91
2022-10-24T07:35:18.888Z,91
2022-10-24T07:40:15.845Z,91
2022-10-24T07:45:15.845Z,91
2022-10-24T07:50:15.894Z,91
2022-10-24T07:55:18.847Z,91
2022-10-24T08:00:18.893Z,91
2022-10-24T08:05:20.774Z,91
2022-10-24T08:10:18.829Z,91
2022-10-24T08:15:18.851Z,92
2022-10-24T08:20:19.016Z,92
2022-10-24T08:25:15.814Z,92
2022-10-24T08:30:15.884Z,92
2022-10-24T08:35:15.907Z,92
2022-10-24T08:40:18.975Z,92
2022-10-24T08:45:18.823Z,92
2022-10-24T08:50:18.869Z,92
2022-10-24T08:55:44.486Z,92
2022-10-24T09:00:18.872Z,92
2022-10-24T09:05:15.836Z,92
2022-10-24T09:10:18.892Z,92
2022-10-24T09:15:15.895Z,92
2022-10-24T09:20:18.977Z,92
2022-10-24T09:25:15.888Z,92
2022-10-24T09:30:19.119Z,92
2022-10-24T09:35:18.885Z,92
2022-10-24T09:40:19.087Z,92
2022-10-24T09:45:15.808Z,92
2022-10-24T09:50:18.860Z,92
2022-10-24T09:55:18.915Z,92
2022-10-24T10:00:15.887Z,93
2022-10-24T10:05:15.961Z,93
2022-10-24T10:10:18.877Z,93
2022-10-24T10:15:18.949Z,93
2022-10-24T10:20:19.628Z,93
2022-10-24T10:25:18.883Z,93
2022-10-24T10:30:18.870Z,93
2022-10-24T10:35:18.913Z,93
2022-10-24T10:40:18.879Z,93
2022-10-24T10:45:18.889Z,93
2022-10-24T10:50:16.058Z,93
2022-10-24T10:55:15.937Z,93
2022-10-24T11:00:15.913Z,93
2022-10-24T11:05:15.949Z,93
2022-10-24T11:10:19.095Z,93
2022-10-24T11:15:24.372Z,93
2022-10-24T11:20:18.921Z,93
2022-10-24T11:25:18.865Z,93
2022-10-24T11:30:18.921Z,93
2022-10-24T11:35:18.962Z,93
2022-10-24T11:40:19.007Z,93
2022-10-24T11:45:18.969Z,93
2022-10-24T11:50:21.818Z,94
2022-10-24T11:55:16.049Z,94
2022-10-24T12:00:15.937Z,94
2022-10-24T12:05:19.518Z,94
2022-10-24T12:10:18.981Z,94
2022-10-24T12:15:18.948Z,94
2022-10-24T12:20:19.077Z,94
2022-10-24T12:25:16.000Z,94
2022-10-24T12:30:18.930Z,94
2022-10-24T12:35:30.106Z,94
2022-10-24T12:40:18.957Z,94
2022-10-24T12:45:16.027Z,94
2022-10-24T12:50:15.981Z,94
2022-10-24T12:55:16.056Z,94
2022-10-24T13:00:15.990Z,94
2022-10-24T13:05:15.996Z,94
2022-10-24T13:10:18.965Z,94
2022-10-24T13:15:18.979Z,94
2022-10-24T13:20:18.974Z,94
2022-10-24T13:25:19.153Z,94
2022-10-24T13:30:18.973Z,94
2022-10-24T13:35:18.991Z,94
2022-10-24T13:40:15.944Z,94
2022-10-24T13:45:18.972Z,94
2022-10-24T13:50:15.973Z,94
2022-10-24T13:55:16.040Z,94
2022-10-24T14:00:16.166Z,94
2022-10-24T14:05:16.001Z,94
2022-10-24T14:10:16.037Z,94
2022-10-24T14:15:16.036Z,94
2022-10-24T14:20:19.033Z,94
2022-10-24T14:25:23.170Z,94
2022-10-24T14:30:19.166Z,94
2022-10-24T14:35:19.020Z,95
2022-10-24T14:40:19.003Z,95
2022-10-24T14:45:19.008Z,95
2022-10-24T14:50:18.985Z,95
2022-10-24T14:55:15.844Z,95
2022-10-24T15:00:21.315Z,94
2022-10-24T15:05:16.199Z,95
2022-10-24T15:10:16.026Z,95
2022-10-24T15:15:21.519Z,95
2022-10-24T15:20:16.091Z,95
2022-10-24T15:25:16.109Z,95
2022-10-24T15:30:16.058Z,95
2022-10-24T15:35:19.414Z,95
2022-10-24T15:40:16.052Z,95
2022-10-24T15:45:19.085Z,95
2022-10-24T15:50:19.144Z,95
2022-10-24T15:55:19.005Z,95
2022-10-24T16:00:19.035Z,95
2022-10-24T16:05:19.045Z,95
2022-10-24T16:10:16.110Z,95
2022-10-24T16:15:16.023Z,95
2022-10-24T16:20:16.059Z,95
2022-10-24T16:25:16.050Z,95
2022-10-24T16:30:16.080Z,95
2022-10-24T16:35:19.104Z,95
2022-10-24T16:40:19.246Z,95
2022-10-24T16:45:19.057Z,95
2022-10-24T16:50:19.058Z,95
2022-10-24T16:55:19.077Z,95
2022-10-24T17:00:19.080Z,95
2022-10-24T17:05:19.245Z,95
2022-10-24T17:10:22.099Z,95
2022-10-24T17:15:21.964Z,95
2022-10-24T17:20:19.084Z,95
2022-10-24T17:25:16.080Z,95
2022-10-24T17:30:16.104Z,95
2022-10-24T17:35:16.096Z,95
2022-10-24T17:40:19.109Z,95
2022-10-24T17:45:19.110Z,95
2022-10-24T17:50:19.121Z,95
2022-10-24T17:55:34.315Z,95
2022-10-24T18:00:19.131Z,95
2022-10-24T18:05:16.125Z,95
2022-10-24T18:10:16.101Z,95
2022-10-24T18:15:19.124Z,95
2022-10-24T18:20:19.115Z,95
2022-10-24T18:25:21.988Z,95
2022-10-24T18:30:19.305Z,95
2022-10-24T18:35:16.094Z,95
2022-10-24T18:40:16.148Z,95
2022-10-24T18:45:19.127Z,95
2022-10-24T18:50:19.088Z,95
2022-10-24T18:55:16.035Z,95
2022-10-24T19:00:19.333Z,95
2022-10-24T19:05:16.154Z,95
2022-10-24T19:10:16.156Z,95
2022-10-24T19:15:19.133Z,95
2022-10-24T19:20:19.133Z,95
2022-10-24T19:25:19.160Z,95
2022-10-24T19:30:19.144Z,95
2022-10-24T19:35:19.318Z,95
2022-10-24T19:40:19.110Z,95
2022-10-24T19:45:21.491Z,95
2022-10-24T19:50:19.102Z,95
2022-10-24T19:55:19.099Z,95
2022-10-24T20:00:16.243Z,95
2022-10-24T20:05:16.153Z,95
2022-10-24T20:10:19.364Z,95
2022-10-24T20:15:19.182Z,95
2022-10-24T20:20:19.179Z,95
2022-10-24T20:25:19.157Z,95
2022-10-24T20:30:16.176Z,95
2022-10-24T20:35:16.244Z,95
2022-10-24T20:40:19.192Z,95
2022-10-24T20:45:22.765Z,95
2022-10-24T20:50:19.154Z,95
2022-10-24T20:55:25.393Z,95
2022-10-24T21:00:16.193Z,95
2022-10-24T21:05:19.189Z,95
2022-10-24T21:10:19.177Z,95
2022-10-24T21:15:19.225Z,95
2022-10-24T21:20:16.244Z,95
2022-10-24T21:25:16.169Z,95
2022-10-24T21:30:19.200Z,95
2022-10-24T21:35:19.202Z,95
2022-10-24T21:40:19.174Z,95
2022-10-24T21:45:19.184Z,95
2022-10-24T21:50:16.197Z,95
2022-10-24T21:55:16.304Z,95
2022-10-24T22:00:19.231Z,95
2022-10-24T22:05:19.205Z,95
2022-10-24T22:10:16.272Z,95
2022-10-24T22:15:19.198Z,95
2022-10-24T22:20:16.253Z,95
2022-10-24T22:25:16.230Z,95
2022-10-24T22:30:19.390Z,95
2022-10-24T22:35:16.010Z,95
2022-10-24T22:40:19.203Z,95
2022-10-24T22:45:19.199Z,95
2022-10-24T22:50:16.140Z,95
2022-10-24T22:55:16.215Z,95
2022-10-24T23:00:19.206Z,95
2022-10-24T23:05:19.273Z,95
2022-10-24T23:10:19.190Z,95
2022-10-24T23:15:19.179Z,95
2022-10-24T23:20:19.216Z,95
2022-10-24T23:25:16.223Z,95
2022-10-24T23:30:19.217Z,95
2022-10-24T23:35:19.236Z,95
2022-10-24T23:40:19.613Z,95
2022-10-24T23:45:19.252Z,95
2022-10-24T23:50:19.288Z,95
2022-10-24T23:55:19.228Z,95
